Terminal Aerodrome Forecast
Issued by NWS Corpus Christi, TX

Home | Current Version | Previous Version | Text Only | Print | Product List | Glossary On
Versions: 1 2 3 4 5 6 7 8 9 10 11 12 13 14
000
FTUS44 KCRP 252300
TAFVCT
TAF
KVCT 252320Z 2600/2624 10007KT P6SM SKC
     FM260600 VRB03KT 5SM BR SKC
     FM260900 VRB02KT 1/2SM FG VV002
     FM261400 20004KT 4SM BR SCT010
     FM261600 19006KT P6SM FEW025
     FM262000 16010KT P6SM SKC=

USA.gov is the U.S. government's official web portal to all federal, state and local government web resources and services.